createdAt,value
2023-04-09T00:01:30.329Z,99211.50
2023-04-09T00:03:56.884Z,99203.88
2023-04-09T00:06:23.439Z,99205.69
2023-04-09T00:08:49.973Z,99202.63
2023-04-09T00:11:16.802Z,99206.75
2023-04-09T00:13:43.239Z,99198.09
2023-04-09T00:16:09.755Z,99207.03
2023-04-09T00:18:36.473Z,99211.38
2023-04-09T00:21:02.965Z,99207.22
2023-04-09T00:23:29.573Z,99205.88
2023-04-09T00:25:56.053Z,99199.72
2023-04-09T00:28:22.514Z,99202.63
2023-04-09T00:30:48.967Z,99194.81
2023-04-09T00:33:15.420Z,99198.09
2023-04-09T00:35:41.906Z,99199.00
2023-04-09T00:38:08.407Z,99201.34
2023-04-09T00:40:34.892Z,99196.59
2023-04-09T00:43:02.345Z,99204.75
2023-04-09T00:45:28.904Z,99201.06
2023-04-09T00:47:56.076Z,99200.63
2023-04-09T00:50:22.704Z,99197.56
2023-04-09T00:52:49.173Z,99201.00
2023-04-09T00:55:16.695Z,99193.38
2023-04-09T00:57:43.232Z,99199.06
2023-04-09T01:00:11.326Z,99202.09
2023-04-09T01:02:38.309Z,99196.47
2023-04-09T01:05:06.088Z,99199.78
2023-04-09T01:07:44.524Z,99197.72
2023-04-09T01:10:19.683Z,99202.59
2023-04-09T01:13:02.494Z,99199.53
2023-04-09T01:15:34.005Z,99198.19
2023-04-09T01:18:39.408Z,99201.03
2023-04-09T01:21:20.435Z,99199.38
2023-04-09T01:24:05.889Z,99203.53
2023-04-09T01:27:04.308Z,99198.84
2023-04-09T01:29:57.871Z,99197.66
2023-04-09T01:32:25.517Z,99193.69
2023-04-09T01:34:53.514Z,99204.69
2023-04-09T01:37:20.888Z,99201.63
2023-04-09T01:39:47.518Z,99199.25
2023-04-09T01:42:15.957Z,99203.78
2023-04-09T01:44:44.283Z,99202.53
2023-04-09T01:47:11.254Z,99203.22
2023-04-09T01:49:39.695Z,99203.81
2023-04-09T01:52:07.277Z,99204.41
2023-04-09T01:54:33.714Z,99210.53
2023-04-09T01:57:01.020Z,99202.97
2023-04-09T01:59:27.509Z,99200.59
2023-04-09T02:02:02.358Z,99201.94
2023-04-09T02:04:58.527Z,99197.28
2023-04-09T02:07:38.589Z,99200.13
2023-04-09T02:10:08.518Z,99209.13
2023-04-09T02:12:38.336Z,99196.47
2023-04-09T02:15:07.303Z,99195.63
2023-04-09T02:17:33.882Z,99204.25
2023-04-09T02:20:00.433Z,99204.00
2023-04-09T02:22:26.886Z,99201.47
2023-04-09T02:24:53.374Z,99200.34
2023-04-09T02:27:19.899Z,99205.16
2023-04-09T02:29:46.349Z,99201.47
2023-04-09T02:32:12.807Z,99201.44
2023-04-09T02:34:39.263Z,99202.41
2023-04-09T02:37:05.740Z,99204.06
2023-04-09T02:39:32.780Z,99204.63
2023-04-09T02:41:59.245Z,99207.56
2023-04-09T02:44:27.114Z,99201.34
2023-04-09T02:46:54.072Z,99202.00
2023-04-09T02:49:20.541Z,99198.88
2023-04-09T02:51:47.150Z,99204.78
2023-04-09T02:54:13.723Z,99207.66
2023-04-09T02:56:40.269Z,99202.19
2023-04-09T02:59:07.032Z,99205.56
2023-04-09T03:01:33.912Z,99198.13
2023-04-09T03:04:01.544Z,99201.44
2023-04-09T03:06:28.424Z,99207.59
2023-04-09T03:08:54.923Z,99196.91
2023-04-09T03:11:21.397Z,99191.50
2023-04-09T03:13:47.878Z,99189.88
2023-04-09T03:16:14.409Z,99191.13
2023-04-09T03:18:40.871Z,99189.34
2023-04-09T03:21:08.271Z,99180.47
2023-04-09T03:23:37.552Z,99178.50
2023-04-09T03:26:06.493Z,99180.38
2023-04-09T03:28:40.265Z,99178.75
2023-04-09T03:31:07.143Z,99177.78
2023-04-09T03:33:36.646Z,99176.03
2023-04-09T03:36:03.409Z,99174.16
2023-04-09T03:38:40.641Z,99170.56
2023-04-09T03:41:14.799Z,99169.94
2023-04-09T03:43:41.491Z,99174.97
2023-04-09T03:46:17.481Z,99174.78
2023-04-09T03:48:46.895Z,99170.19
2023-04-09T03:51:17.420Z,99171.19
2023-04-09T03:53:50.336Z,99170.97
2023-04-09T03:56:16.961Z,99167.00
2023-04-09T03:58:43.684Z,99166.41
2023-04-09T04:01:12.720Z,99166.22
2023-04-09T04:03:49.377Z,99167.41
2023-04-09T04:06:22.689Z,99165.16
2023-04-09T04:09:09.547Z,99164.34
2023-04-09T04:11:43.742Z,99165.72
2023-04-09T04:14:10.882Z,99163.81
2023-04-09T04:16:40.748Z,99167.06
2023-04-09T04:19:08.136Z,99161.59
2023-04-09T04:21:41.720Z,99166.69
2023-04-09T04:24:08.471Z,99168.94
2023-04-09T04:26:35.300Z,99168.78
2023-04-09T04:29:02.080Z,99172.78
2023-04-09T04:31:45.752Z,99167.31
2023-04-09T04:34:14.482Z,99175.56
2023-04-09T04:36:44.487Z,99168.84
2023-04-09T04:39:11.170Z,99174.72
2023-04-09T04:41:49.305Z,99179.97
2023-04-09T04:44:21.027Z,99172.00
2023-04-09T04:46:51.570Z,99175.47
2023-04-09T04:49:18.025Z,99177.38
2023-04-09T04:51:47.301Z,99176.00
2023-04-09T04:54:15.690Z,99177.38
2023-04-09T04:56:49.265Z,99179.97
2023-04-09T04:59:24.364Z,99178.47
2023-04-09T05:02:04.330Z,99176.69
2023-04-09T05:04:36.298Z,99185.47
2023-04-09T05:07:04.146Z,99191.78
2023-04-09T05:09:30.964Z,99188.78
2023-04-09T05:12:01.249Z,99192.22
2023-04-09T05:14:27.884Z,99195.81
2023-04-09T05:16:54.437Z,99191.25
2023-04-09T05:19:25.350Z,99190.84
2023-04-09T05:21:57.926Z,99185.50
2023-04-09T05:24:24.466Z,99191.56
2023-04-09T05:26:51.104Z,99201.16
2023-04-09T05:29:17.767Z,99192.94
2023-04-09T05:31:44.265Z,99204.31
2023-04-09T05:34:20.510Z,99198.97
2023-04-09T05:36:50.994Z,99203.25
2023-04-09T05:39:19.730Z,99203.25
2023-04-09T05:41:46.562Z,99207.47
2023-04-09T05:44:35.499Z,99205.56
2023-04-09T05:47:07.976Z,99205.94
2023-04-09T05:49:41.987Z,99208.56
2023-04-09T05:52:12.425Z,99209.56
2023-04-09T05:54:39.120Z,99213.44
2023-04-09T05:57:08.387Z,99206.94
2023-04-09T05:59:37.629Z,99206.72
2023-04-09T06:02:04.369Z,99210.47
2023-04-09T06:04:33.618Z,99203.19
2023-04-09T06:07:00.467Z,99201.38
2023-04-09T06:09:29.868Z,99205.63
2023-04-09T06:11:57.690Z,99200.56
2023-04-09T06:14:24.318Z,99203.59
2023-04-09T06:16:50.824Z,99205.81
2023-04-09T06:19:17.703Z,99201.91
2023-04-09T06:21:44.254Z,99200.69
2023-04-09T06:24:10.690Z,99206.50
2023-04-09T06:26:37.189Z,99203.03
2023-04-09T06:29:04.597Z,99203.53
2023-04-09T06:31:31.150Z,99208.25
2023-04-09T06:33:57.654Z,99212.34
2023-04-09T06:36:24.299Z,99210.94
2023-04-09T06:38:50.979Z,99211.66
2023-04-09T06:41:21.139Z,99207.88
2023-04-09T06:43:47.583Z,99215.56
2023-04-09T06:46:17.202Z,99213.97
2023-04-09T06:48:44.680Z,99214.03
2023-04-09T06:51:11.460Z,99212.53
2023-04-09T06:53:39.126Z,99217.81
2023-04-09T06:56:06.190Z,99209.94
2023-04-09T06:58:32.793Z,99211.41
2023-04-09T07:01:00.059Z,99210.16
2023-04-09T07:03:27.938Z,99200.16
2023-04-09T07:05:55.442Z,99191.09
2023-04-09T07:08:23.369Z,99200.94
2023-04-09T07:10:50.077Z,99199.31
2023-04-09T07:13:16.673Z,99196.72
2023-04-09T07:15:43.322Z,99193.34
2023-04-09T07:18:09.958Z,99202.31
2023-04-09T07:20:36.626Z,99200.25
2023-04-09T07:23:03.173Z,99202.81
2023-04-09T07:25:29.684Z,99194.09
2023-04-09T07:27:56.977Z,99194.09
2023-04-09T07:30:23.670Z,99195.03
2023-04-09T07:32:50.533Z,99197.63
2023-04-09T07:35:18.516Z,99202.16
2023-04-09T07:37:45.328Z,99197.22
2023-04-09T07:40:12.095Z,99193.63
2023-04-09T07:42:39.305Z,99202.16
2023-04-09T07:45:06.910Z,99209.28
2023-04-09T07:47:33.376Z,99207.84
2023-04-09T07:49:59.855Z,99205.09
2023-04-09T07:52:26.288Z,99199.41
2023-04-09T07:54:52.780Z,99196.59
2023-04-09T07:57:19.386Z,99187.84
2023-04-09T07:59:46.660Z,99191.47
2023-04-09T08:02:15.359Z,99190.34
2023-04-09T08:04:42.480Z,99188.41
2023-04-09T08:07:09.332Z,99198.31
2023-04-09T08:09:35.816Z,99199.69
2023-04-09T08:12:02.328Z,99199.22
2023-04-09T08:14:28.829Z,99194.91
2023-04-09T08:16:55.487Z,99193.19
2023-04-09T08:19:22.102Z,99201.78
2023-04-09T08:21:48.965Z,99198.78
2023-04-09T08:24:15.691Z,99195.13
2023-04-09T08:26:42.846Z,99197.81
2023-04-09T08:29:11.444Z,99196.09
2023-04-09T08:31:38.358Z,99203.16
2023-04-09T08:34:05.532Z,99208.41
2023-04-09T08:36:32.512Z,99212.19
2023-04-09T08:39:00.493Z,99210.84
2023-04-09T08:41:29.291Z,99211.69
2023-04-09T08:43:59.254Z,99211.25
2023-04-09T08:46:27.153Z,99211.88
2023-04-09T08:48:54.232Z,99222.16
2023-04-09T08:51:22.819Z,99217.53
2023-04-09T08:53:55.348Z,99208.19
2023-04-09T08:56:22.258Z,99223.22
2023-04-09T08:58:48.986Z,99216.78
2023-04-09T09:01:21.881Z,99214.19
2023-04-09T09:04:01.645Z,99204.03
2023-04-09T09:06:32.816Z,99209.44
2023-04-09T09:09:00.673Z,99214.19
2023-04-09T09:11:27.860Z,99221.00
2023-04-09T09:14:02.430Z,99212.59
2023-04-09T09:16:29.415Z,99222.66
2023-04-09T09:18:56.865Z,99204.44
2023-04-09T09:21:27.332Z,99217.31
2023-04-09T09:23:54.135Z,99211.69
2023-04-09T09:26:24.433Z,99214.47
2023-04-09T09:28:52.079Z,99213.03
2023-04-09T09:31:21.157Z,99210.94
2023-04-09T09:33:49.072Z,99203.75
2023-04-09T09:36:18.477Z,99205.47
2023-04-09T09:38:57.169Z,99197.25
2023-04-09T09:41:24.872Z,99199.94
2023-04-09T09:43:52.034Z,99205.19
2023-04-09T09:46:20.850Z,99196.84
2023-04-09T09:48:47.586Z,99201.13
2023-04-09T09:51:14.492Z,99199.31
2023-04-09T09:53:44.377Z,99188.44
2023-04-09T09:56:24.621Z,99190.56
2023-04-09T09:58:54.836Z,99184.53
2023-04-09T10:01:24.299Z,99190.13
2023-04-09T10:03:52.518Z,99184.69
2023-04-09T10:06:19.532Z,99182.09
2023-04-09T10:08:48.659Z,99175.50
2023-04-09T10:11:15.291Z,99180.91
2023-04-09T10:13:57.655Z,99182.47
2023-04-09T10:16:25.925Z,99173.50
2023-04-09T10:18:53.829Z,99171.13
2023-04-09T10:21:45.269Z,99165.66
2023-04-09T10:24:12.042Z,99169.50
2023-04-09T10:26:42.641Z,99164.97
2023-04-09T10:29:14.460Z,99165.59
2023-04-09T10:32:09.784Z,99169.06
2023-04-09T10:34:39.978Z,99166.72
2023-04-09T10:37:13.668Z,99165.16
2023-04-09T10:39:44.034Z,99162.91
2023-04-09T10:42:18.123Z,99166.38
2023-04-09T10:44:44.918Z,99159.69
2023-04-09T10:47:12.172Z,99164.09
2023-04-09T10:49:42.760Z,99156.38
2023-04-09T10:52:12.657Z,99166.06
2023-04-09T10:54:50.954Z,99167.09
2023-04-09T10:57:21.975Z,99164.75
2023-04-09T10:59:51.381Z,99162.13
2023-04-09T11:02:40.170Z,99163.94
2023-04-09T11:05:16.395Z,99159.59
2023-04-09T11:07:52.514Z,99162.28
2023-04-09T11:10:20.926Z,99154.94
2023-04-09T11:12:48.559Z,99150.63
2023-04-09T11:15:19.782Z,99149.63
2023-04-09T11:17:47.646Z,99156.75
2023-04-09T11:20:16.437Z,99163.75
2023-04-09T11:22:43.186Z,99162.94
2023-04-09T11:25:09.800Z,99156.75
2023-04-09T11:27:39.741Z,99151.09
2023-04-09T11:30:06.971Z,99156.38
2023-04-09T11:32:33.905Z,99155.78
2023-04-09T11:35:00.959Z,99154.97
2023-04-09T11:37:27.511Z,99156.13
2023-04-09T11:39:57.364Z,99155.28
2023-04-09T11:42:25.699Z,99159.66
2023-04-09T11:44:53.170Z,99154.56
2023-04-09T11:47:20.980Z,99159.06
2023-04-09T11:49:47.585Z,99157.13
2023-04-09T11:52:16.538Z,99151.88
2023-04-09T11:54:49.284Z,99148.03
2023-04-09T11:57:15.795Z,99148.00
2023-04-09T11:59:42.378Z,99144.88
2023-04-09T12:02:09.222Z,99141.00
2023-04-09T12:04:35.888Z,99152.88
2023-04-09T12:07:02.503Z,99156.50
2023-04-09T12:09:47.083Z,99148.31
2023-04-09T12:12:18.572Z,99137.03
2023-04-09T12:14:47.239Z,99134.09
2023-04-09T12:17:13.683Z,99132.88
2023-04-09T12:19:40.290Z,99139.38
2023-04-09T12:22:06.840Z,99143.72
2023-04-09T12:24:33.343Z,99145.34
2023-04-09T12:26:59.751Z,99141.03
2023-04-09T12:29:26.875Z,99149.66
2023-04-09T12:31:54.032Z,99145.00
2023-04-09T12:34:20.681Z,99127.06
2023-04-09T12:36:47.108Z,99129.66
2023-04-09T12:39:13.543Z,99126.06
2023-04-09T12:41:40.002Z,99128.25
2023-04-09T12:44:07.342Z,99141.13
2023-04-09T12:46:33.845Z,99134.53
2023-04-09T12:49:00.872Z,99120.06
2023-04-09T12:51:28.464Z,99121.06
2023-04-09T12:53:55.140Z,99131.56
2023-04-09T12:56:21.755Z,99123.63
2023-04-09T12:58:48.190Z,99116.47
2023-04-09T13:01:14.781Z,99120.94
2023-04-09T13:03:41.765Z,99116.28
2023-04-09T13:06:08.703Z,99106.19
2023-04-09T13:08:35.186Z,99109.88
2023-04-09T13:11:01.790Z,99115.06
2023-04-09T13:13:28.638Z,99116.00
2023-04-09T13:15:55.141Z,99110.13
2023-04-09T13:18:21.875Z,99109.56
2023-04-09T13:20:48.334Z,99111.47
2023-04-09T13:23:14.759Z,99107.78
2023-04-09T13:25:41.204Z,99109.25
2023-04-09T13:28:07.636Z,99103.69
2023-04-09T13:30:34.236Z,99108.22
2023-04-09T13:33:00.865Z,99105.13
2023-04-09T13:35:27.720Z,99096.16
2023-04-09T13:37:54.211Z,99095.47
2023-04-09T13:40:20.847Z,99083.44
2023-04-09T13:42:47.386Z,99092.78
2023-04-09T13:45:14.018Z,99105.16
2023-04-09T13:47:41.130Z,99101.34
2023-04-09T13:50:10.131Z,99101.22
2023-04-09T13:52:36.608Z,99103.34
2023-04-09T13:55:03.970Z,99091.72
2023-04-09T13:57:30.471Z,99099.50
2023-04-09T13:59:56.988Z,99095.41
2023-04-09T14:02:23.777Z,99090.25
2023-04-09T14:04:50.398Z,99100.16
2023-04-09T14:07:16.865Z,99100.63
2023-04-09T14:09:44.002Z,99094.66
2023-04-09T14:12:10.785Z,99098.31
2023-04-09T14:14:37.360Z,99092.16
2023-04-09T14:17:03.894Z,99090.28
2023-04-09T14:19:30.454Z,99092.09
2023-04-09T14:21:57.053Z,99080.88
2023-04-09T14:24:23.657Z,99088.56
2023-04-09T14:26:53.227Z,99090.41
2023-04-09T14:29:21.074Z,99091.06
2023-04-09T14:31:47.816Z,99077.91
2023-04-09T14:34:14.491Z,99073.22
2023-04-09T14:36:41.065Z,99074.00
2023-04-09T14:39:07.597Z,99066.38
2023-04-09T14:41:34.337Z,99067.84
2023-04-09T14:44:00.977Z,99064.19
2023-04-09T14:46:27.577Z,99072.16
2023-04-09T14:48:54.366Z,99073.81
2023-04-09T14:51:21.106Z,99072.91
2023-04-09T14:53:47.635Z,99070.16
2023-04-09T14:56:14.239Z,99073.09
2023-04-09T14:58:40.939Z,99052.97
2023-04-09T15:01:07.490Z,99055.66
2023-04-09T15:03:34.193Z,99064.25
2023-04-09T15:06:00.907Z,99058.31
2023-04-09T15:08:27.373Z,99060.19
2023-04-09T15:10:53.908Z,99056.22
2023-04-09T15:13:20.545Z,99057.63
2023-04-09T15:15:47.019Z,99058.19
2023-04-09T15:18:13.519Z,99058.00
2023-04-09T15:20:40.407Z,99058.69
2023-04-09T15:23:06.958Z,99053.44
2023-04-09T15:25:33.407Z,99051.19
2023-04-09T15:27:59.916Z,99048.19
2023-04-09T15:30:26.512Z,99044.13
2023-04-09T15:32:53.135Z,99042.72
2023-04-09T15:35:24.938Z,99040.91
2023-04-09T15:37:51.715Z,99036.00
2023-04-09T15:40:18.631Z,99029.91
2023-04-09T15:42:45.201Z,99027.03
2023-04-09T15:45:13.100Z,99032.34
2023-04-09T15:47:39.574Z,99017.63
2023-04-09T15:50:06.686Z,99029.66
2023-04-09T15:52:33.227Z,99026.88
2023-04-09T15:54:59.645Z,99029.69
2023-04-09T15:57:26.162Z,99026.22
2023-04-09T15:59:52.749Z,99026.03
2023-04-09T16:02:19.529Z,99024.59
2023-04-09T16:04:46.120Z,99025.41
2023-04-09T16:07:16.061Z,99025.75
2023-04-09T16:09:42.580Z,99038.56
2023-04-09T16:12:09.308Z,99036.06
2023-04-09T16:14:37.430Z,99035.63
2023-04-09T16:17:04.001Z,99038.25
2023-04-09T16:19:30.499Z,99039.28
2023-04-09T16:21:57.601Z,99027.81
2023-04-09T16:24:24.031Z,99035.59
2023-04-09T16:26:50.537Z,99031.09
2023-04-09T16:29:17.740Z,99035.03
2023-04-09T16:31:44.366Z,99029.94
2023-04-09T16:34:10.995Z,99028.28
2023-04-09T16:36:37.549Z,99021.94
2023-04-09T16:39:04.702Z,99026.81
2023-04-09T16:41:31.428Z,99023.31
2023-04-09T16:43:57.959Z,99026.22
2023-04-09T16:46:24.632Z,99027.25
2023-04-09T16:48:51.561Z,99023.97
2023-04-09T16:51:18.327Z,99024.13
2023-04-09T16:53:45.011Z,99033.06
2023-04-09T16:56:11.480Z,99025.97
2023-04-09T16:58:37.964Z,99030.66
2023-04-09T17:01:04.652Z,99032.84
2023-04-09T17:03:31.265Z,99033.38
2023-04-09T17:05:57.880Z,99036.47
2023-04-09T17:08:24.467Z,99030.19
2023-04-09T17:10:51.981Z,99033.81
2023-04-09T17:13:18.505Z,99027.09
2023-04-09T17:15:44.952Z,99029.94
2023-04-09T17:18:11.489Z,99023.25
2023-04-09T17:20:37.966Z,99024.22
2023-04-09T17:23:04.532Z,99029.66
2023-04-09T17:25:30.990Z,99020.84
2023-04-09T17:27:57.873Z,99018.44
2023-04-09T17:30:24.487Z,99029.59
2023-04-09T17:32:51.137Z,99026.13
2023-04-09T17:35:17.711Z,99029.97
2023-04-09T17:37:44.162Z,99046.00
2023-04-09T17:40:12.454Z,99046.69
2023-04-09T17:42:38.910Z,99036.34
2023-04-09T17:45:05.875Z,99052.50
2023-04-09T17:47:32.467Z,99047.56
2023-04-09T17:49:59.835Z,99049.84
2023-04-09T17:52:26.460Z,99045.22
2023-04-09T17:54:52.995Z,99047.66
2023-04-09T17:57:19.587Z,99045.63
2023-04-09T17:59:46.159Z,99048.19
2023-04-09T18:02:12.771Z,99050.63
2023-04-09T18:04:39.651Z,99052.88
2023-04-09T18:07:06.333Z,99055.31
2023-04-09T18:09:32.905Z,99047.63
2023-04-09T18:12:01.327Z,99050.41
2023-04-09T18:14:27.867Z,99047.84
2023-04-09T18:16:54.391Z,99057.09
2023-04-09T18:19:21.219Z,99054.47
2023-04-09T18:21:47.799Z,99053.38
2023-04-09T18:24:14.243Z,99057.22
2023-04-09T18:26:40.818Z,99052.13
2023-04-09T18:29:08.374Z,99054.94
2023-04-09T18:31:34.929Z,99044.97
2023-04-09T18:34:01.594Z,99042.19
2023-04-09T18:36:28.347Z,99046.97
2023-04-09T18:38:55.999Z,99051.84
2023-04-09T18:41:27.150Z,99052.66
2023-04-09T18:43:54.145Z,99050.75
2023-04-09T18:46:20.743Z,99051.56
2023-04-09T18:48:47.237Z,99052.59
2023-04-09T18:51:14.480Z,99058.03
2023-04-09T18:53:41.739Z,99069.69
2023-04-09T18:56:08.436Z,99068.84
2023-04-09T18:58:35.994Z,99073.13
2023-04-09T19:01:10.834Z,99067.38
2023-04-09T19:03:37.593Z,99073.94
2023-04-09T19:06:14.519Z,99069.03
2023-04-09T19:08:41.620Z,99074.09
2023-04-09T19:11:08.133Z,99072.75
2023-04-09T19:13:35.428Z,99073.38
2023-04-09T19:16:02.319Z,99079.59
2023-04-09T19:18:29.107Z,99082.94
2023-04-09T19:20:55.710Z,99078.75
2023-04-09T19:23:22.198Z,99077.34
2023-04-09T19:25:53.421Z,99077.00
2023-04-09T19:28:19.860Z,99076.81
2023-04-09T19:30:46.396Z,99074.19
2023-04-09T19:33:13.190Z,99067.63
2023-04-09T19:35:40.970Z,99072.41
2023-04-09T19:38:08.067Z,99073.25
2023-04-09T19:40:34.792Z,99078.81
2023-04-09T19:43:01.233Z,99070.69
2023-04-09T19:45:28.203Z,99077.41
2023-04-09T19:47:57.662Z,99083.75
2023-04-09T19:50:24.191Z,99092.25
2023-04-09T19:52:50.675Z,99093.06
2023-04-09T19:55:17.235Z,99094.34
2023-04-09T19:57:44.281Z,99087.25
2023-04-09T20:00:11.443Z,99080.81
2023-04-09T20:02:39.402Z,99089.88
2023-04-09T20:05:06.288Z,99087.34
2023-04-09T20:07:32.721Z,99089.06
2023-04-09T20:09:59.358Z,99090.03
2023-04-09T20:12:29.294Z,99085.63
2023-04-09T20:14:57.273Z,99088.19
2023-04-09T20:17:23.767Z,99077.53
2023-04-09T20:19:50.302Z,99084.00
2023-04-09T20:22:17.143Z,99083.88
2023-04-09T20:24:43.764Z,99082.94
2023-04-09T20:27:10.185Z,99081.13
2023-04-09T20:29:36.788Z,99080.59
2023-04-09T20:32:03.312Z,99086.41
2023-04-09T20:34:29.917Z,99082.50
2023-04-09T20:36:56.628Z,99083.28
2023-04-09T20:39:24.985Z,99079.69
2023-04-09T20:41:51.451Z,99077.59
2023-04-09T20:44:17.973Z,99077.16
2023-04-09T20:46:44.493Z,99078.97
2023-04-09T20:49:10.971Z,99076.06
2023-04-09T20:51:37.483Z,99067.25
2023-04-09T20:54:04.214Z,99068.13
2023-04-09T20:56:32.019Z,99062.50
2023-04-09T20:58:58.681Z,99067.00
2023-04-09T21:01:27.305Z,99072.47
2023-04-09T21:03:54.283Z,99074.72
2023-04-09T21:06:21.009Z,99073.72
2023-04-09T21:08:47.476Z,99074.06
2023-04-09T21:11:13.990Z,99071.16
2023-04-09T21:13:51.030Z,99070.03
2023-04-09T21:16:20.871Z,99064.13
2023-04-09T21:18:47.448Z,99063.97
2023-04-09T21:21:14.163Z,99065.88
2023-04-09T21:23:41.442Z,99062.66
2023-04-09T21:26:08.924Z,99064.44
2023-04-09T21:28:35.422Z,99068.59
2023-04-09T21:31:01.983Z,99074.44
2023-04-09T21:33:30.002Z,99075.47
2023-04-09T21:35:57.014Z,99073.75
2023-04-09T21:38:23.500Z,99069.19
2023-04-09T21:40:50.009Z,99071.69
2023-04-09T21:43:16.620Z,99073.47
2023-04-09T21:45:43.167Z,99064.00
2023-04-09T21:48:09.627Z,99065.88
2023-04-09T21:50:36.358Z,99074.44
2023-04-09T21:53:03.251Z,99062.50
2023-04-09T21:55:29.893Z,99067.06
2023-04-09T21:57:56.561Z,99067.19
2023-04-09T22:00:23.204Z,99068.44
2023-04-09T22:02:49.779Z,99061.56
2023-04-09T22:05:16.389Z,99055.91
2023-04-09T22:07:42.993Z,99053.72
2023-04-09T22:10:09.795Z,99057.16
2023-04-09T22:12:37.109Z,99055.38
2023-04-09T22:15:05.024Z,99055.78
2023-04-09T22:17:31.541Z,99047.84
2023-04-09T22:19:58.510Z,99050.31
2023-04-09T22:22:25.312Z,99053.59
2023-04-09T22:24:51.932Z,99058.97
2023-04-09T22:27:18.496Z,99058.84
2023-04-09T22:29:44.921Z,99067.91
2023-04-09T22:32:11.454Z,99067.22
2023-04-09T22:34:37.993Z,99072.03
2023-04-09T22:37:04.425Z,99072.31
2023-04-09T22:39:31.055Z,99074.53
2023-04-09T22:41:58.411Z,99077.16
2023-04-09T22:44:25.566Z,99075.50
2023-04-09T22:46:52.199Z,99076.97
2023-04-09T22:49:18.719Z,99073.00
2023-04-09T22:51:45.726Z,99079.63
2023-04-09T22:54:12.324Z,99066.56
2023-04-09T22:56:39.609Z,99064.19
2023-04-09T22:59:06.252Z,99064.47
2023-04-09T23:01:33.223Z,99070.78
2023-04-09T23:03:59.703Z,99067.63
2023-04-09T23:06:26.176Z,99068.72
2023-04-09T23:08:52.913Z,99071.78
2023-04-09T23:11:19.610Z,99076.31
2023-04-09T23:13:46.313Z,99077.91
2023-04-09T23:16:13.522Z,99082.00
2023-04-09T23:18:40.222Z,99085.47
2023-04-09T23:21:08.154Z,99084.78
2023-04-09T23:23:35.448Z,99079.84
2023-04-09T23:26:02.217Z,99078.88
2023-04-09T23:28:29.013Z,99087.97
2023-04-09T23:30:55.842Z,99069.28
2023-04-09T23:33:22.524Z,99077.66
2023-04-09T23:35:49.110Z,99079.31
2023-04-09T23:38:15.811Z,99085.91
2023-04-09T23:40:42.943Z,99088.19
2023-04-09T23:43:09.544Z,99074.47
2023-04-09T23:45:36.088Z,99066.25
2023-04-09T23:48:03.463Z,99068.00
2023-04-09T23:50:30.340Z,99067.31
2023-04-09T23:53:03.320Z,99065.09
2023-04-09T23:55:30.004Z,99070.47
2023-04-09T23:57:56.754Z,99065.47
